Flight Track Log - Related Links

Times and Time Zones

All times are in EDT time to prevent confusion due to time zone crossing. See the DAL3860 flight status page for this flight to view local times or setup timezone preferences in your user account.

Time Position Orientation Groundspeed Altitude Reporting Facility
EDT Latitude Longitude Course Direction KTS MPH feet Rate Location/Type
Sun 09:10:05 AM 41.4258 -81.8319 252° West 188 216 1,700  Level Cleveland Center
Sun 09:11:00 AM 41.4819 -81.8442 351° North 255 293 3,200 1,645 Climbing Cleveland Center
Sun 09:12:09 AM 41.5417 -81.9036 323° Northwest 275 316 5,100 2,140 Climbing Cleveland Center
Sun 09:13:00 AM 41.3302 -82.3793 252° West  Level FlightAware Approximate
Sun 09:13:09 AM 41.5156 -81.9947 249° West 260 299 7,800  Level Cleveland Center
Sun 09:14:00 AM 41.3000 -82.5088 270° West  Level FlightAware Approximate
Sun 09:14:09 AM 41.4769 -82.0881 241° Southwest 273 314 10,300  Level Cleveland Center
Sun 09:15:00 AM 41.2854 -82.6416 252° West  Level FlightAware Approximate
Sun 09:15:09 AM 41.4358 -82.1894 242° Southwest 299 344 11,600  Level Cleveland Center
Sun 09:16:09 AM 41.3906 -82.3047 242° Southwest 335 386 13,200 1,550 Climbing Cleveland Center
Sun 09:17:09 AM 41.3469 -82.4197 243° Southwest 348 400 14,700 1,550 Climbing Cleveland Center
Sun 09:18:09 AM 41.3053 -82.5403 245° Southwest 348 400 16,300 1,550 Climbing Cleveland Center
Sun 09:19:09 AM 41.2883 -82.6750 261° West 365 420 17,800 1,450 Climbing Cleveland Center
Sun 09:20:09 AM 41.2692 -82.8072 259° West 365 420 19,200 1,350 Climbing Cleveland Center
Sun 09:21:09 AM 41.2500 -82.9333 259° West 370 426 20,500 1,300 Climbing Cleveland Center
Sun 09:22:09 AM 41.2658 -83.0639 279° West 370 426 21,800 750 Climbing Cleveland Center
Sun 09:23:09 AM 41.3028 -83.1925 291° West 368 423 22,000 100 Climbing Cleveland Center
Sun 09:24:09 AM 41.3456 -83.3186 294° West 373 429 22,000  Level Cleveland Center
Sun 09:25:09 AM 41.3881 -83.4533 293° West 383 441 22,000  Level Cleveland Center
Sun 09:26:09 AM 41.4328 -83.5856 294° West 383 441 22,000  Level Cleveland Center
Sun 09:27:09 AM 41.4519 -83.7278 280° West 388 447 22,000  Level Cleveland Center
Sun 09:28:09 AM 41.4583 -83.8722 273° West 388 447 22,000  Level Cleveland Center
Sun 09:29:09 AM 41.4644 -84.0194 273° West 394 453 22,000  Level Cleveland Center
Sun 09:30:09 AM 41.4703 -84.1611 273° West 394 453 22,000  Level Cleveland Center
Sun 09:31:09 AM 41.4803 -84.3086 275° West 394 453 22,000  Level Cleveland Center
Sun 09:32:09 AM 41.5258 -84.4444 294° West 394 453 22,000  Level Cleveland Center
Sun 09:33:09 AM 41.5819 -84.5753 300° West 399 459 22,000  Level Cleveland Center
Sun 09:34:09 AM 41.6397 -84.7042 301° West 404 465 22,000  Level Cleveland Center
Sun 09:36:05 AM 41.7469 -84.9483 301° West 398 458 22,000 270 Level Chicago Center
Sun 09:37:07 AM 41.8022 -85.0736 301° West 396 456 22,800 732 Climbing Chicago Center
Sun 09:38:08 AM 41.8569 -85.2011 300° West 398 458 23,500 829 Climbing Chicago Center
Sun 09:39:10 AM 41.9128 -85.3294 300° West 403 464 24,500 968 Climbing Chicago Center
Sun 09:40:12 AM 41.9664 -85.4581 299° West 400 460 25,500 732 Climbing Chicago Center
Sun 09:41:13 AM 42.0261 -85.5992 300° West 400 460 26,000 244 Climbing Chicago Center
Sun 09:42:15 AM 42.0825 -85.7297 300° West 403 464 26,000  Level Chicago Center
Sun 09:43:17 AM 42.1375 -85.8614 299° West 405 466 26,000  Level Chicago Center
Sun 09:44:18 AM 42.1978 -86.0056 299° West 407 468 26,000  Level Chicago Center
Sun 09:45:20 AM 42.2519 -86.1342 300° West 398 458 26,000  Level Chicago Center
Sun 09:46:22 AM 42.3128 -86.2808 299° West 397 457 26,000  Level Chicago Center
Sun 09:47:23 AM 42.3658 -86.4097 299° West 394 453 26,000  Level Chicago Center
Sun 09:48:25 AM 42.4197 -86.5389 300° West 392 451 26,000  Level Chicago Center
Sun 09:49:26 AM 42.4786 -86.6839 299° West 396 456 26,000  Level Chicago Center
Sun 09:50:28 AM 42.5325 -86.8133 299° West 397 457 26,000  Level Chicago Center
Sun 09:51:30 AM 42.5800 -86.9314 299° West 395 455 26,000  Level Chicago Center
Sun 09:52:31 AM 42.6369 -87.0581 301° West 394 453 26,000  Level Chicago Center
Sun 09:53:33 AM 42.7061 -87.1839 307° West 413 475 26,000  Level Chicago Center
Sun 09:54:34 AM 42.7925 -87.3442 306° West 434 499 26,000  Level Chicago Center
Sun 09:55:36 AM 42.8675 -87.4794 307° West 435 501 26,000  Level Chicago Center
Sun 09:56:38 AM 42.9406 -87.6131 307° West 438 504 26,000  Level Chicago Center
Sun 09:57:39 AM 43.0117 -87.7472 306° West 438 504 26,000  Level Chicago Center
Sun 09:58:41 AM 43.0842 -87.8797 307° West 437 503 26,000  Level Chicago Center
Sun 09:59:42 AM 43.1556 -88.0136 306° West 435 501 26,000  Level Chicago Center
Sun 10:00:44 AM 43.2272 -88.1472 306° West 436 502 26,000  Level Chicago Center
Sun 10:01:45 AM 43.2978 -88.2794 306° West 432 497 26,000  Level Chicago Center
Sun 10:02:47 AM 43.3803 -88.4358 306° West 432 497 26,000  Level Chicago Center
Sun 10:03:48 AM 43.4489 -88.5653 306° West 439 505 26,000  Level Chicago Center
Sun 10:04:50 AM 43.5144 -88.6922 305° West 430 495 26,000  Level Chicago Center
Sun 10:05:51 AM 43.5950 -88.8486 305° West 428 493 26,000  Level Chicago Center
Sun 10:06:53 AM 43.6639 -88.9811 306° West 424 488 26,000  Level Chicago Center
Sun 10:07:55 AM 43.7328 -89.1139 306° West 426 490 26,000  Level Chicago Center
Sun 10:08:56 AM 43.8003 -89.2464 305° West 423 487 26,000  Level Chicago Center
Sun 10:09:58 AM 43.8675 -89.3800 305° West 423 487 26,000  Level Chicago Center
Sun 10:10:59 AM 43.9347 -89.5117 305° West 420 483 26,000  Level Chicago Center
Sun 10:11:23 AM 43.9458 -89.5328 306° West 419 482 26,000  Level Minneapolis Center
Sun 10:12:25 AM 44.0342 -89.7089 305° West 416 479 26,000  Level Minneapolis Center
Sun 10:13:26 AM 44.1000 -89.8386 305° West 411 473 26,000  Level Minneapolis Center
Sun 10:14:27 AM 44.1608 -89.9733 302° West 410 472 26,000  Level Minneapolis Center
Sun 10:15:28 AM 44.2069 -90.1197 294° West 410 472 26,000  Level Minneapolis Center
Sun 10:16:41 AM 44.2533 -90.2661 294° West 413 475 26,000  Level Minneapolis Center
Sun 10:17:43 AM 44.3075 -90.4339 294° West 408 470 26,000  Level Minneapolis Center
Sun 10:18:44 AM 44.3458 -90.5536 294° West 406 467 26,000  Level Minneapolis Center
Sun 10:19:45 AM 44.4078 -90.7492 294° West 412 474 26,000  Level Minneapolis Center
Sun 10:20:47 AM 44.4519 -90.8939 293° West 407 468 26,000  Level Minneapolis Center
Sun 10:22:00 AM 44.4989 -91.0406 294° West 404 465 26,000 -358 Level Minneapolis Center
Sun 10:23:01 AM 44.5533 -91.2161 294° West 409 471 25,200 -1,317 Descending Minneapolis Center
Sun 10:24:03 AM 44.5961 -91.3589 293° West 405 466 23,300 -1,902 Descending Minneapolis Center
Sun 10:25:04 AM 44.6392 -91.4975 294° West 393 452 21,300 -1,902 Descending Minneapolis Center
Sun 10:26:06 AM 44.6819 -91.6364 293° West 391 450 19,400 -1,854 Descending Minneapolis Center
Sun 10:27:07 AM 44.7217 -91.7678 293° West 376 433 17,500 -1,869 Descending Minneapolis Center
Sun 10:28:08 AM 44.7592 -91.8942 293° West 357 411 15,600 -1,902 Descending Minneapolis Center
Sun 10:29:10 AM 44.8031 -92.0431 293° West 346 398 13,600 -1,805 Descending Minneapolis Center
Sun 10:30:11 AM 44.8383 -92.1642 292° West 338 389 11,900 -1,610 Descending Minneapolis Center
Sun 10:31:13 AM 44.8744 -92.2869 293° West 341 392 10,300 -927 Descending Minneapolis Center
Sun 10:32:14 AM 44.8672 -92.4139 265° West 336 387 10,000 -146 Descending Minneapolis Center
Sun 10:33:16 AM 44.8439 -92.5414 256° West 338 389 10,000  Level Minneapolis Center
Sun 10:34:17 AM 44.8250 -92.6419 255° West 334 384 10,000  Level Minneapolis Center
Sun 10:35:19 AM 44.7964 -92.7917 255° West 333 383 10,000 -145 Level Minneapolis Center
Sun 10:36:21 AM 44.7742 -92.9319 257° West 293 337 9,700 -634 Descending Minneapolis Center
Sun 10:37:22 AM 44.7839 -93.0378 277° West 275 316 8,700 -829 Descending Minneapolis Center
Sun 10:38:24 AM 44.7947 -93.1439 278° West 278 320 8,000 -339 Descending Minneapolis Center
Sun 10:39:26 AM 44.8058 -93.2492 278° West 283 326 8,000 -195 Level Minneapolis Center
Sun 10:40:27 AM 44.8336 -93.3458 292° West 278 320 7,600 -976 Descending Minneapolis Center
Sun 10:41:29 AM 44.8725 -93.4631 295° West 277 319 6,000 -1,258 Descending Minneapolis Center
Sun 10:42:31 AM 44.9369 -93.4694 356° North 239 275 5,000 -968 Descending Minneapolis Center

Login

Don't have an account? Register now (free) for customized features, flight alerts, and more!